createdAt,value
2023-01-27T00:00:29.555Z,-1.10
2023-01-27T00:04:46.596Z,-1.10
2023-01-27T00:09:03.692Z,-1.10
2023-01-27T00:13:27.001Z,-1.10
2023-01-27T00:17:44.145Z,-1.10
2023-01-27T00:22:19.923Z,-1.10
2023-01-27T00:26:36.997Z,-1.20
2023-01-27T00:30:54.155Z,-1.10
2023-01-27T00:35:11.309Z,-1.20
2023-01-27T00:39:28.397Z,-1.20
2023-01-27T00:43:50.669Z,-1.10
2023-01-27T00:48:07.765Z,-1.10
2023-01-27T00:52:25.036Z,-1.20
2023-01-27T00:56:42.302Z,-1.20
2023-01-27T01:01:01.991Z,-1.20
2023-01-27T01:05:19.062Z,-1.20
2023-01-27T01:09:36.106Z,-1.20
2023-01-27T01:13:55.926Z,-1.20
2023-01-27T01:18:13.967Z,-1.20
2023-01-27T01:22:31.039Z,-1.20
2023-01-27T01:26:48.289Z,-1.20
2023-01-27T01:31:13.796Z,-1.20
2023-01-27T01:35:31.070Z,-1.30
2023-01-27T01:39:48.161Z,-1.20
2023-01-27T01:44:25.235Z,-1.10
2023-01-27T01:48:51.030Z,-1.20
2023-01-27T01:53:10.258Z,-1.20
2023-01-27T01:57:32.930Z,-1.20
2023-01-27T02:01:52.851Z,-1.10
2023-01-27T02:06:11.249Z,-1.10
2023-01-27T02:10:28.724Z,-1.30
2023-01-27T02:14:45.873Z,-1.30
2023-01-27T02:19:03.465Z,-1.30
2023-01-27T02:23:38.273Z,-1.20
2023-01-27T02:27:55.375Z,-1.10
2023-01-27T02:32:26.729Z,-1.10
2023-01-27T02:36:49.865Z,-1.20
2023-01-27T02:41:25.794Z,-1.20
2023-01-27T02:45:45.342Z,-1.10
2023-01-27T02:50:02.403Z,-1.10
2023-01-27T02:54:19.470Z,-1.20
2023-01-27T02:58:36.677Z,-1.30
2023-01-27T03:02:53.764Z,-1.30
2023-01-27T03:07:10.833Z,-1.20
2023-01-27T03:11:46.788Z,-1.30
2023-01-27T03:16:23.764Z,-1.30
2023-01-27T03:20:46.006Z,-1.20
2023-01-27T03:25:03.087Z,-1.20
2023-01-27T03:29:38.863Z,-1.20
2023-01-27T03:33:55.953Z,-1.20
2023-01-27T03:38:32.469Z,-1.20
2023-01-27T03:43:11.552Z,-1.10
2023-01-27T03:47:28.719Z,-1.10
2023-01-27T03:51:45.816Z,-1.20
2023-01-27T03:56:04.502Z,-1.30
2023-01-27T04:00:21.685Z,-1.40
2023-01-27T04:04:57.634Z,-1.40
2023-01-27T04:09:20.500Z,-1.50
2023-01-27T04:13:37.869Z,-1.40
2023-01-27T04:17:54.939Z,-1.30
2023-01-27T04:22:13.557Z,-1.30
2023-01-27T04:26:34.838Z,-1.30
2023-01-27T04:30:51.926Z,-1.50
2023-01-27T04:35:09.250Z,-1.50
2023-01-27T04:39:26.473Z,-1.50
2023-01-27T04:43:43.543Z,-1.40
2023-01-27T04:48:00.703Z,-1.50
2023-01-27T04:52:17.811Z,-1.50
2023-01-27T04:56:37.345Z,-1.60
2023-01-27T05:00:54.468Z,-1.50
2023-01-27T05:05:12.320Z,-1.50
2023-01-27T05:09:29.586Z,-1.50
2023-01-27T05:13:46.966Z,-1.50
2023-01-27T05:18:04.160Z,-1.50
2023-01-27T05:22:21.640Z,-1.50
2023-01-27T05:26:38.867Z,-1.40
2023-01-27T05:31:07.697Z,-1.50
2023-01-27T05:35:24.837Z,-1.40
2023-01-27T05:39:41.890Z,-1.40
2023-01-27T05:43:59.515Z,-1.30
2023-01-27T05:48:16.828Z,-1.30
2023-01-27T05:52:33.901Z,-1.30
2023-01-27T05:56:51.062Z,-1.40
2023-01-27T06:01:11.545Z,-1.50
2023-01-27T06:05:28.636Z,-1.40
2023-01-27T06:09:45.739Z,-1.30
2023-01-27T06:14:02.856Z,-1.30
2023-01-27T06:18:19.991Z,-1.40
2023-01-27T06:22:37.117Z,-1.40
2023-01-27T06:26:55.687Z,-1.30
2023-01-27T06:31:16.446Z,-1.20
2023-01-27T06:35:35.072Z,-1.20
2023-01-27T06:39:52.166Z,-1.30
2023-01-27T06:44:09.254Z,-1.20
2023-01-27T06:48:27.542Z,-1.30
2023-01-27T06:52:44.760Z,-1.20
2023-01-27T06:57:01.872Z,-1.30
2023-01-27T07:01:19.199Z,-1.20
2023-01-27T07:05:38.658Z,-1.20
2023-01-27T07:09:55.845Z,-1.10
2023-01-27T07:14:12.944Z,-1.10
2023-01-27T07:18:30.089Z,-1.20
2023-01-27T07:22:47.246Z,-1.20
2023-01-27T07:27:04.512Z,-1.20
2023-01-27T07:31:21.957Z,-1.20
2023-01-27T07:35:41.143Z,-1.10
2023-01-27T07:39:58.255Z,-1.20
2023-01-27T07:44:15.476Z,-1.30
2023-01-27T07:48:32.585Z,-1.20
2023-01-27T07:52:49.792Z,-1.20
2023-01-27T07:57:06.837Z,-1.30
2023-01-27T08:01:24.404Z,-1.20
2023-01-27T08:05:43.077Z,-1.20
2023-01-27T08:10:01.064Z,-1.20
2023-01-27T08:14:18.240Z,-1.20
2023-01-27T08:18:35.336Z,-1.20
2023-01-27T08:22:52.599Z,-1.00
2023-01-27T08:27:09.766Z,-1.00
2023-01-27T08:31:26.885Z,-1.10
2023-01-27T08:35:44.807Z,-1.10
2023-01-27T08:40:01.941Z,-1.00
2023-01-27T08:44:19.270Z,-0.90
2023-01-27T08:48:37.499Z,-0.70
2023-01-27T08:52:54.810Z,-0.70
2023-01-27T08:57:12.025Z,-0.60
2023-01-27T09:01:29.141Z,-0.60
2023-01-27T09:05:47.854Z,-0.60
2023-01-27T09:10:14.233Z,-0.70
2023-01-27T09:14:34.069Z,-0.80
2023-01-27T09:18:51.111Z,-0.70
2023-01-27T09:23:08.188Z,-0.70
2023-01-27T09:27:37.227Z,-0.60
2023-01-27T09:31:56.110Z,-0.60
2023-01-27T09:36:17.478Z,-0.50
2023-01-27T09:40:46.374Z,-0.40
2023-01-27T09:45:17.155Z,-0.10
2023-01-27T09:49:55.749Z,0.00
2023-01-27T09:54:38.991Z,0.00
2023-01-27T09:58:59.103Z,0.00
2023-01-27T10:04:06.532Z,0.20
2023-01-27T10:09:05.339Z,0.10
2023-01-27T10:13:25.229Z,0.10
2023-01-27T10:18:14.188Z,0.10
2023-01-27T10:23:10.122Z,-0.20
2023-01-27T10:27:35.671Z,-0.10
2023-01-27T10:32:11.539Z,0.00
2023-01-27T10:36:51.491Z,0.30
2023-01-27T10:41:27.624Z,0.30
2023-01-27T10:45:58.523Z,0.30
2023-01-27T10:50:19.499Z,0.20
2023-01-27T10:54:42.707Z,0.10
2023-01-27T10:59:22.602Z,0.10
2023-01-27T11:04:03.903Z,0.30
2023-01-27T11:08:26.752Z,0.20
2023-01-27T11:12:51.961Z,0.40
2023-01-27T11:17:36.591Z,0.50
2023-01-27T11:22:06.709Z,0.40
2023-01-27T11:26:44.638Z,0.40
2023-01-27T11:31:22.061Z,0.40
2023-01-27T11:35:39.346Z,0.40
2023-01-27T11:39:56.812Z,0.40
2023-01-27T11:44:22.340Z,0.40
2023-01-27T11:48:44.053Z,0.30
2023-01-27T11:53:17.336Z,0.20
2023-01-27T11:57:36.324Z,-0.10
2023-01-27T12:02:09.960Z,0.10
2023-01-27T12:06:39.371Z,0.20
2023-01-27T12:11:15.764Z,0.10
2023-01-27T12:15:33.530Z,0.10
2023-01-27T12:19:55.459Z,0.10
2023-01-27T12:24:24.367Z,0.10
2023-01-27T12:28:53.136Z,-0.10
2023-01-27T12:33:13.903Z,-0.20
2023-01-27T12:37:38.423Z,-0.10
2023-01-27T12:41:55.673Z,0.00
2023-01-27T12:46:12.869Z,0.10
2023-01-27T12:50:32.667Z,0.10
2023-01-27T12:54:53.119Z,0.20
2023-01-27T12:59:19.049Z,0.30
2023-01-27T13:03:42.020Z,0.50
2023-01-27T13:07:59.882Z,0.30
2023-01-27T13:12:24.970Z,0.30
2023-01-27T13:16:42.058Z,0.40
2023-01-27T13:21:13.050Z,0.40
2023-01-27T13:25:55.616Z,0.20
2023-01-27T13:30:22.600Z,0.20
2023-01-27T13:34:54.996Z,0.20
2023-01-27T13:39:17.401Z,0.10
2023-01-27T13:43:41.387Z,0.40
2023-01-27T13:48:08.410Z,0.50
2023-01-27T13:52:25.660Z,0.50
2023-01-27T13:57:04.801Z,0.50
2023-01-27T14:01:47.102Z,0.40
2023-01-27T14:06:29.722Z,0.40
2023-01-27T14:10:59.349Z,0.30
2023-01-27T14:15:39.941Z,0.40
2023-01-27T14:20:33.176Z,0.40
2023-01-27T14:24:59.979Z,0.40
2023-01-27T14:29:50.611Z,0.50
2023-01-27T14:34:22.694Z,0.60
2023-01-27T14:38:50.954Z,0.50
2023-01-27T14:43:10.823Z,0.60
2023-01-27T14:47:49.587Z,0.50
2023-01-27T14:53:02.891Z,0.50
2023-01-27T14:57:38.363Z,0.50
2023-01-27T15:02:19.025Z,0.60
2023-01-27T15:06:49.505Z,0.70
2023-01-27T15:11:37.433Z,0.60
2023-01-27T15:16:05.625Z,0.60
2023-01-27T15:20:25.915Z,0.70
2023-01-27T15:25:02.396Z,0.80
2023-01-27T15:29:25.809Z,0.70
2023-01-27T15:33:53.339Z,0.80
2023-01-27T15:38:29.151Z,0.80
2023-01-27T15:42:58.151Z,0.80
2023-01-27T15:47:22.495Z,0.80
2023-01-27T15:51:39.793Z,0.80
2023-01-27T15:55:59.454Z,0.80
2023-01-27T16:00:37.751Z,0.80
2023-01-27T16:05:25.031Z,0.70
2023-01-27T16:09:45.482Z,0.70
2023-01-27T16:14:25.475Z,0.80
2023-01-27T16:18:59.505Z,0.70
2023-01-27T16:23:33.174Z,0.80
2023-01-27T16:27:59.194Z,0.80
2023-01-27T16:32:19.609Z,0.70
2023-01-27T16:36:36.865Z,0.70
2023-01-27T16:41:03.528Z,0.70
2023-01-27T16:45:23.453Z,0.70
2023-01-27T16:49:42.027Z,0.70
2023-01-27T16:54:01.083Z,0.70
2023-01-27T16:58:23.279Z,0.80
2023-01-27T17:02:42.472Z,0.90
2023-01-27T17:07:11.572Z,0.80
2023-01-27T17:11:32.891Z,0.80
2023-01-27T17:15:49.968Z,0.90
2023-01-27T17:20:08.399Z,0.90
2023-01-27T17:24:37.282Z,1.00
2023-01-27T17:28:54.827Z,1.00
2023-01-27T17:33:19.065Z,1.00
2023-01-27T17:37:43.146Z,1.00
2023-01-27T17:42:01.441Z,1.00
2023-01-27T17:46:19.735Z,1.00
2023-01-27T17:50:39.331Z,1.00
2023-01-27T17:55:02.375Z,1.00
2023-01-27T17:59:22.093Z,1.00
2023-01-27T18:03:39.946Z,1.00
2023-01-27T18:07:57.539Z,1.00
2023-01-27T18:12:35.897Z,1.00
2023-01-27T18:17:02.708Z,1.00
2023-01-27T18:21:24.929Z,1.00
2023-01-27T18:25:51.562Z,1.10
2023-01-27T18:30:16.033Z,1.10
2023-01-27T18:34:34.204Z,1.10
2023-01-27T18:38:51.603Z,1.10
2023-01-27T18:43:10.041Z,1.10
2023-01-27T18:47:29.725Z,1.20
2023-01-27T18:51:46.804Z,1.10
2023-01-27T18:56:04.469Z,1.10
2023-01-27T19:00:24.846Z,1.20
2023-01-27T19:04:42.618Z,1.20
2023-01-27T19:08:59.710Z,1.20
2023-01-27T19:13:17.330Z,1.20
2023-01-27T19:17:36.694Z,1.20
2023-01-27T19:21:53.759Z,1.20
2023-01-27T19:26:19.134Z,1.20
2023-01-27T19:30:36.482Z,1.20
2023-01-27T19:34:53.595Z,1.20
2023-01-27T19:39:16.324Z,1.20
2023-01-27T19:43:33.405Z,1.20
2023-01-27T19:47:50.706Z,1.20
2023-01-27T19:52:07.788Z,1.10
2023-01-27T19:56:30.237Z,1.20
2023-01-27T20:00:47.600Z,1.10
2023-01-27T20:05:05.115Z,1.10
2023-01-27T20:09:22.357Z,1.10
2023-01-27T20:13:39.437Z,1.10
2023-01-27T20:17:56.608Z,1.10
2023-01-27T20:22:13.665Z,1.10
2023-01-27T20:26:32.332Z,1.20
2023-01-27T20:30:49.466Z,1.20
2023-01-27T20:35:06.605Z,1.20
2023-01-27T20:39:23.666Z,1.30
2023-01-27T20:43:40.751Z,1.30
2023-01-27T20:47:59.366Z,1.30
2023-01-27T20:52:16.419Z,1.20
2023-01-27T20:56:33.469Z,1.20
2023-01-27T21:00:50.581Z,1.20
2023-01-27T21:05:08.248Z,1.20
2023-01-27T21:09:25.359Z,1.20
2023-01-27T21:13:42.423Z,1.30
2023-01-27T21:18:00.012Z,1.20
2023-01-27T21:22:17.107Z,1.20
2023-01-27T21:26:36.367Z,1.20
2023-01-27T21:30:53.407Z,1.20
2023-01-27T21:35:10.513Z,1.20
2023-01-27T21:39:27.587Z,1.20
2023-01-27T21:44:03.371Z,1.20
2023-01-27T21:48:20.567Z,1.20
2023-01-27T21:52:45.769Z,1.10
2023-01-27T21:57:02.798Z,1.10
2023-01-27T22:01:20.013Z,1.10
2023-01-27T22:05:39.076Z,1.10
2023-01-27T22:09:56.405Z,1.20
2023-01-27T22:14:13.491Z,1.20
2023-01-27T22:18:31.238Z,1.20
2023-01-27T22:22:48.433Z,1.20
2023-01-27T22:27:05.584Z,1.20
2023-01-27T22:31:22.656Z,1.20
2023-01-27T22:35:40.024Z,1.20
2023-01-27T22:39:57.195Z,1.20
2023-01-27T22:44:14.682Z,1.20
2023-01-27T22:48:31.820Z,1.30
2023-01-27T22:52:48.910Z,1.40
2023-01-27T22:57:05.953Z,1.30
2023-01-27T23:01:23.421Z,1.30
2023-01-27T23:05:40.527Z,1.30
2023-01-27T23:09:57.668Z,1.20
2023-01-27T23:14:14.783Z,1.30
2023-01-27T23:18:32.061Z,1.30
2023-01-27T23:22:49.237Z,1.20
2023-01-27T23:27:06.338Z,1.30
2023-01-27T23:31:23.491Z,1.30
2023-01-27T23:35:41.016Z,1.30
2023-01-27T23:39:58.216Z,1.30
2023-01-27T23:44:15.344Z,1.30
2023-01-27T23:48:32.429Z,1.30
2023-01-27T23:52:49.554Z,1.30
2023-01-27T23:57:06.638Z,1.20
